As Suwayq — V7XU8 — position and weather

sailwx.info

Track history (hours):
 
Tides and Currents Weather Stations Pressure Air Temp Water Temp Dewpoint Dewpoint Depression Visibility Wind Speed Wind Dir Waves Ship Positions

As Suwayq

Last reported at 2018-Jan-31 05:26 UTC. Time now 2018-Feb-22 01:30 UTC.
Position N 35°59' E 120°31'.
Warning: this ship's position is 21 days out of date.

Length 333 m; draft 13 m.

MMSI: 538004576.

Date/timePositionNaut miles runAvg speedWind from/ knotsBaromVisibWave heightAir tempDewpointWater temp
2018-Jan-31 05:26N 35°59' E 120°31'610.9
2018-Jan-31 04:55N 36°00' E 120°24'5 9.5
2018-Jan-31 04:26N 36°01' E 120°18'3 6.2
2018-Jan-31 04:01N 36°02' E 120°15'1 1.0
2018-Jan-31 03:23N 36°03' E 120°15'0 0.0
2018-Jan-31 02:45N 36°03' E 120°15'0 0.0
2018-Jan-31 02:30N 36°03' E 120°15'0 0.0
2018-Jan-31 01:37N 36°03' E 120°15'0 0.0
2018-Jan-31 00:46N 36°03' E 120°15'0 0.0
2018-Jan-30 22:14N 36°03' E 120°15'0 0.0
2018-Jan-30 19:47N 36°03' E 120°15'0 0.0
2018-Jan-30 19:27N 36°03' E 120°15'0 0.0
2018-Jan-30 18:51N 36°03' E 120°15'0 0.0
2018-Jan-30 17:03N 36°03' E 120°15'0 0.0
2018-Jan-30 16:45N 36°03' E 120°15'0 0.0
2018-Jan-30 16:31N 36°03' E 120°15'0 0.0
2018-Jan-30 15:57N 36°03' E 120°15'0 0.0
2018-Jan-30 15:21N 36°03' E 120°15'0 0.0
2018-Jan-30 14:45N 36°03' E 120°15'0 0.0
2018-Jan-30 14:30N 36°03' E 120°15'0 0.0
2018-Jan-30 13:00N 36°03' E 120°15'0 0.0
2018-Jan-30 12:27N 36°03' E 120°15'0 0.0
2018-Jan-30 11:57N 36°03' E 120°15'0 0.0
2018-Jan-30 10:29N 36°03' E 120°15'0 0.0
2018-Jan-30 09:30N 36°03' E 120°15'0 0.0
2018-Jan-30 08:36N 36°03' E 120°15'0 0.0
2018-Jan-30 08:19N 36°03' E 120°15'0 0.0
2018-Jan-30 07:06N 36°03' E 120°15'0 0.0
2018-Jan-30 05:54N 36°03' E 120°15'0 0.0
2018-Jan-30 04:24N 36°03' E 120°15'0 0.0
2018-Jan-30 03:30N 36°03' E 120°15'0 0.0
2018-Jan-30 02:54N 36°03' E 120°15'0 0.0
2018-Jan-30 02:18N 36°03' E 120°15'0 0.0
2018-Jan-30 01:43N 36°03' E 120°15'0 0.0
2018-Jan-30 00:48N 36°03' E 120°15'0 0.0
2018-Jan-30 00:31N 36°03' E 120°15'0 0.0
2018-Jan-29 23:54N 36°03' E 120°15'0 0.0
2018-Jan-29 22:42N 36°03' E 120°15'0 0.0
2018-Jan-29 22:24N 36°03' E 120°15'0 0.0
2018-Jan-29 19:45N 36°03' E 120°15'0 0.0
2018-Jan-29 19:24N 36°03' E 120°15'0 0.0
2018-Jan-29 18:48N 36°03' E 120°15'0 0.0
2018-Jan-29 18:30N 36°03' E 120°15'0 0.0
2018-Jan-29 17:53N 36°03' E 120°15'0 0.0
2018-Jan-29 15:11N 36°03' E 120°15'0 0.0
2018-Jan-29 14:17N 36°03' E 120°15'0 0.0
2018-Jan-29 12:30N 36°03' E 120°15'0 0.0
2018-Jan-29 11:56N 36°03' E 120°15'0 0.0
2018-Jan-29 11:19N 36°03' E 120°15'0 0.0
2018-Jan-29 10:23N 36°03' E 120°15'0 0.0
2018-Jan-29 09:48N 36°03' E 120°15'0 0.0
2018-Jan-29 08:41N 36°03' E 120°15'0 0.0
2018-Jan-29 07:50N 36°03' E 120°15'0 0.0
2018-Jan-29 07:29N 36°03' E 120°15'0 0.0
2018-Jan-29 06:59N 36°03' E 120°15'1 0.8
2018-Jan-29 06:11N 36°02' E 120°15'1 3.9
2018-Jan-29 05:51N 36°02' E 120°17'2 5.1
2018-Jan-29 05:23N 36°01' E 120°20'1 3.1
2018-Jan-29 04:57N 36°00' E 120°21'0 0.0
2018-Jan-29 02:40N 36°01' E 120°21'0 0.2
2018-Jan-29 02:22N 36°01' E 120°21'0 0.0
2018-Jan-29 01:46N 36°01' E 120°21'0 0.3
2018-Jan-29 01:29N 36°01' E 120°21'0 0.5
2018-Jan-29 00:52N 36°00' E 120°21'0 0.2
2018-Jan-29 00:19N 36°00' E 120°21'0 0.1
2018-Jan-28 23:46N 36°00' E 120°21'0 0.2
2018-Jan-28 23:28N 36°00' E 120°21'0 0.0
2018-Jan-28 22:52N 36°00' E 120°21'0 0.0
2018-Jan-28 21:58N 36°00' E 120°21'0 0.1
2018-Jan-28 21:22N 36°00' E 120°21'0 0.1
2018-Jan-28 20:49N 36°00' E 120°21'0 0.1
2018-Jan-28 20:13N 36°00' E 120°21'0 0.0
2018-Jan-28 19:59N 36°00' E 120°21'0 0.1
2018-Jan-28 18:34N 36°00' E 120°21'0 0.0
2018-Jan-28 18:16N 36°00' E 120°21'0 0.1
2018-Jan-28 17:55N 36°00' E 120°21'0 0.1
2018-Jan-28 17:27N 36°00' E 120°21'0 0.1
2018-Jan-28 16:49N 36°00' E 120°21'0 0.1
2018-Jan-28 14:55N 36°00' E 120°21'0 0.1
2018-Jan-28 13:16N 36°00' E 120°21'0 0.2
2018-Jan-28 12:58N 36°00' E 120°21'0 0.1
2018-Jan-28 11:46N 36°00' E 120°21'0 0.0
2018-Jan-28 11:28N 36°00' E 120°21'0 0.0
2018-Jan-28 10:53N 36°00' E 120°21'0 0.0
2018-Jan-28 10:25N 36°00' E 120°21'0 0.0
2018-Jan-28 09:49N 36°00' E 120°21'0 0.1
2018-Jan-28 09:13N 36°00' E 120°21'0 0.0
2018-Jan-28 08:46N 36°00' E 120°21'0 0.2
2018-Jan-28 08:28N 36°00' E 120°21'0 0.1
2018-Jan-28 07:55N 36°00' E 120°21'0 0.2
2018-Jan-28 07:27N 36°00' E 120°21'1 1.6
2018-Jan-28 06:53N 36°00' E 120°22'2 5.3
2018-Jan-28 06:26N 36°00' E 120°25'5 8.6
2018-Jan-28 05:53N 35°59' E 120°31'  
2018-Jan-22 09:58N 25°05' E 122°41'511.8
2018-Jan-22 09:30N 25°00' E 122°39'611.8
2018-Jan-22 09:00N 24°55' E 122°36'611.4
2018-Jan-22 08:30N 24°49' E 122°34'611.4
2018-Jan-22 08:00N 24°44' E 122°32'611.7
2018-Jan-22 07:30N 24°38' E 122°29'611.7
2018-Jan-22 07:00N 24°33' E 122°27'611.5
2018-Jan-22 06:30N 24°28' E 122°25'611.8
2018-Jan-22 06:00N 24°22' E 122°22'612.1
2018-Jan-22 05:30N 24°17' E 122°20'612.2
2018-Jan-22 05:00N 24°11' E 122°18'612.0
2018-Jan-22 04:30N 24°05' E 122°15'611.7
2018-Jan-22 04:00N 23°60' E 122°13'  
Track history (hours):
 
Tides and Currents Weather Stations Pressure Air Temp Water Temp Dewpoint Dewpoint Depression Visibility Wind Speed Wind Dir Waves Ship Positions

As Suwayq

Last reported at 2018-Jan-31 05:26 UTC. Time now 2018-Feb-22 01:30 UTC.
Position N 35°59' E 120°31'.
Warning: this ship's position is 21 days out of date.

Length 333 m; draft 13 m.

MMSI: 538004576.

Date/timePositionNaut miles runAvg speedWind from/ knotsBaromVisibWave heightAir tempDewpointWater temp
2018-Jan-31 05:26N 35°59' E 120°31'610.9
2018-Jan-31 04:55N 36°00' E 120°24'5 9.5
2018-Jan-31 04:26N 36°01' E 120°18'3 6.2
2018-Jan-31 04:01N 36°02' E 120°15'1 1.0
2018-Jan-31 03:23N 36°03' E 120°15'0 0.0
2018-Jan-31 02:45N 36°03' E 120°15'0 0.0
2018-Jan-31 02:30N 36°03' E 120°15'0 0.0
2018-Jan-31 01:37N 36°03' E 120°15'0 0.0
2018-Jan-31 00:46N 36°03' E 120°15'0 0.0
2018-Jan-30 22:14N 36°03' E 120°15'0 0.0
2018-Jan-30 19:47N 36°03' E 120°15'0 0.0
2018-Jan-30 19:27N 36°03' E 120°15'0 0.0
2018-Jan-30 18:51N 36°03' E 120°15'0 0.0
2018-Jan-30 17:03N 36°03' E 120°15'0 0.0
2018-Jan-30 16:45N 36°03' E 120°15'0 0.0
2018-Jan-30 16:31N 36°03' E 120°15'0 0.0
2018-Jan-30 15:57N 36°03' E 120°15'0 0.0
2018-Jan-30 15:21N 36°03' E 120°15'0 0.0
2018-Jan-30 14:45N 36°03' E 120°15'0 0.0
2018-Jan-30 14:30N 36°03' E 120°15'0 0.0
2018-Jan-30 13:00N 36°03' E 120°15'0 0.0
2018-Jan-30 12:27N 36°03' E 120°15'0 0.0
2018-Jan-30 11:57N 36°03' E 120°15'0 0.0
2018-Jan-30 10:29N 36°03' E 120°15'0 0.0
2018-Jan-30 09:30N 36°03' E 120°15'0 0.0
2018-Jan-30 08:36N 36°03' E 120°15'0 0.0
2018-Jan-30 08:19N 36°03' E 120°15'0 0.0
2018-Jan-30 07:06N 36°03' E 120°15'0 0.0
2018-Jan-30 05:54N 36°03' E 120°15'0 0.0
2018-Jan-30 04:24N 36°03' E 120°15'0 0.0
2018-Jan-30 03:30N 36°03' E 120°15'0 0.0
2018-Jan-30 02:54N 36°03' E 120°15'0 0.0
2018-Jan-30 02:18N 36°03' E 120°15'0 0.0
2018-Jan-30 01:43N 36°03' E 120°15'0 0.0
2018-Jan-30 00:48N 36°03' E 120°15'0 0.0
2018-Jan-30 00:31N 36°03' E 120°15'0 0.0
2018-Jan-29 23:54N 36°03' E 120°15'0 0.0
2018-Jan-29 22:42N 36°03' E 120°15'0 0.0
2018-Jan-29 22:24N 36°03' E 120°15'0 0.0
2018-Jan-29 19:45N 36°03' E 120°15'0 0.0
2018-Jan-29 19:24N 36°03' E 120°15'0 0.0
2018-Jan-29 18:48N 36°03' E 120°15'0 0.0
2018-Jan-29 18:30N 36°03' E 120°15'0 0.0
2018-Jan-29 17:53N 36°03' E 120°15'0 0.0
2018-Jan-29 15:11N 36°03' E 120°15'0 0.0
2018-Jan-29 14:17N 36°03' E 120°15'0 0.0
2018-Jan-29 12:30N 36°03' E 120°15'0 0.0
2018-Jan-29 11:56N 36°03' E 120°15'0 0.0
2018-Jan-29 11:19N 36°03' E 120°15'0 0.0
2018-Jan-29 10:23N 36°03' E 120°15'0 0.0
2018-Jan-29 09:48N 36°03' E 120°15'0 0.0
2018-Jan-29 08:41N 36°03' E 120°15'0 0.0
2018-Jan-29 07:50N 36°03' E 120°15'0 0.0
2018-Jan-29 07:29N 36°03' E 120°15'0 0.0
2018-Jan-29 06:59N 36°03' E 120°15'1 0.8
2018-Jan-29 06:11N 36°02' E 120°15'1 3.9
2018-Jan-29 05:51N 36°02' E 120°17'2 5.1
2018-Jan-29 05:23N 36°01' E 120°20'1 3.1
2018-Jan-29 04:57N 36°00' E 120°21'0 0.0
2018-Jan-29 02:40N 36°01' E 120°21'0 0.2
2018-Jan-29 02:22N 36°01' E 120°21'0 0.0
2018-Jan-29 01:46N 36°01' E 120°21'0 0.3
2018-Jan-29 01:29N 36°01' E 120°21'0 0.5
2018-Jan-29 00:52N 36°00' E 120°21'0 0.2
2018-Jan-29 00:19N 36°00' E 120°21'0 0.1
2018-Jan-28 23:46N 36°00' E 120°21'0 0.2
2018-Jan-28 23:28N 36°00' E 120°21'0 0.0
2018-Jan-28 22:52N 36°00' E 120°21'0 0.0
2018-Jan-28 21:58N 36°00' E 120°21'0 0.1
2018-Jan-28 21:22N 36°00' E 120°21'0 0.1
2018-Jan-28 20:49N 36°00' E 120°21'0 0.1
2018-Jan-28 20:13N 36°00' E 120°21'0 0.0
2018-Jan-28 19:59N 36°00' E 120°21'0 0.1
2018-Jan-28 18:34N 36°00' E 120°21'0 0.0
2018-Jan-28 18:16N 36°00' E 120°21'0 0.1
2018-Jan-28 17:55N 36°00' E 120°21'0 0.1
2018-Jan-28 17:27N 36°00' E 120°21'0 0.1
2018-Jan-28 16:49N 36°00' E 120°21'0 0.1
2018-Jan-28 14:55N 36°00' E 120°21'0 0.1
2018-Jan-28 13:16N 36°00' E 120°21'0 0.2
2018-Jan-28 12:58N 36°00' E 120°21'0 0.1
2018-Jan-28 11:46N 36°00' E 120°21'0 0.0
2018-Jan-28 11:28N 36°00' E 120°21'0 0.0
2018-Jan-28 10:53N 36°00' E 120°21'0 0.0
2018-Jan-28 10:25N 36°00' E 120°21'0 0.0
2018-Jan-28 09:49N 36°00' E 120°21'0 0.1
2018-Jan-28 09:13N 36°00' E 120°21'0 0.0
2018-Jan-28 08:46N 36°00' E 120°21'0 0.2
2018-Jan-28 08:28N 36°00' E 120°21'0 0.1
2018-Jan-28 07:55N 36°00' E 120°21'0 0.2
2018-Jan-28 07:27N 36°00' E 120°21'1 1.6
2018-Jan-28 06:53N 36°00' E 120°22'2 5.3
2018-Jan-28 06:26N 36°00' E 120°25'5 8.6
2018-Jan-28 05:53N 35°59' E 120°31'  
2018-Jan-22 09:58N 25°05' E 122°41'511.8
2018-Jan-22 09:30N 25°00' E 122°39'611.8
2018-Jan-22 09:00N 24°55' E 122°36'611.4
2018-Jan-22 08:30N 24°49' E 122°34'611.4
2018-Jan-22 08:00N 24°44' E 122°32'611.7
2018-Jan-22 07:30N 24°38' E 122°29'611.7
2018-Jan-22 07:00N 24°33' E 122°27'611.5
2018-Jan-22 06:30N 24°28' E 122°25'611.8
2018-Jan-22 06:00N 24°22' E 122°22'612.1
2018-Jan-22 05:30N 24°17' E 122°20'612.2
2018-Jan-22 05:00N 24°11' E 122°18'612.0
2018-Jan-22 04:30N 24°05' E 122°15'611.7
2018-Jan-22 04:00N 23°60' E 122°13'  

Dump ship's entire track history